CheckWX is a tool to help pilots better visualize weather data.  It is not intended as a substitute for an official pre-flight weather briefing.

04:15:26 UTC

EHBK METAR
Maastricht Aachen Airport
Maastricht, The Netherlands
Current

20 mins ago

EHBK 260355Z AUTO 20008KT 5000 BR NSC 10/09 Q1016 BECMG 8000
Observed
May-26 @ 03:55 UTC
Wind
  • 200° at 8 KTS
Visibility
5,005 meters
Flight Rules
MVFR
Conditions
Mist
Cloud Levels
  • Clear skies
Temperature
10°C / 50°F
Dewpoint
C / 48°F
Humidity
94%
Altimeter
30" Hg
Pressure
1015.92 hPa
Previous

50 mins ago

EHBK 260325Z AUTO 20008KT 5000 BR NSC 10/09 Q1016
Observed
May-26 @ 03:25 UTC
Wind
  • 200° at 8 KTS
Visibility
5,005 meters
Flight Rules
MVFR
Conditions
Mist
Cloud Levels
  • Clear skies
Temperature
10°C / 50°F
Dewpoint
C / 48°F
Humidity
94%
Altimeter
30" Hg
Pressure
1015.92 hPa
Previous

1 hour ago

EHBK 260255Z AUTO 20008KT 5000 BR NSC 10/09 Q1016
Observed
May-26 @ 02:55 UTC
Wind
  • 200° at 8 KTS
Visibility
5,005 meters
Flight Rules
MVFR
Conditions
Mist
Cloud Levels
  • Clear skies
Temperature
10°C / 50°F
Dewpoint
C / 48°F
Humidity
94%
Altimeter
30" Hg
Pressure
1015.92 hPa